createdAt,value
2022-08-12T00:02:43.657Z,97588.50
2022-08-12T00:05:30.206Z,97579.88
2022-08-12T00:08:16.970Z,97577.03
2022-08-12T00:11:14.287Z,97577.44
2022-08-12T00:13:59.602Z,97577.06
2022-08-12T00:16:48.513Z,97574.84
2022-08-12T00:19:34.054Z,97578.09
2022-08-12T00:22:19.724Z,97570.97
2022-08-12T00:25:05.791Z,97568.53
2022-08-12T00:27:51.432Z,97570.75
2022-08-12T00:30:36.571Z,97582.44
2022-08-12T00:33:22.224Z,97572.22
2022-08-12T00:36:14.894Z,97574.28
2022-08-12T00:39:17.242Z,97573.63
2022-08-12T00:42:03.109Z,97571.00
2022-08-12T00:44:30.081Z,97568.53
2022-08-12T00:47:01.863Z,97573.84
2022-08-12T00:49:29.671Z,97579.16
2022-08-12T00:52:07.684Z,97573.88
2022-08-12T00:54:39.731Z,97573.44
2022-08-12T00:57:17.612Z,97570.38
2022-08-12T00:59:51.287Z,97565.25
2022-08-12T01:02:32.503Z,97569.75
2022-08-12T01:05:18.663Z,97568.13
2022-08-12T01:08:04.794Z,97572.63
2022-08-12T01:10:51.152Z,97566.69
2022-08-12T01:13:19.766Z,97571.41
2022-08-12T01:15:51.424Z,97572.22
2022-08-12T01:18:27.301Z,97572.84
2022-08-12T01:21:20.017Z,97573.84
2022-08-12T01:24:29.671Z,97574.25
2022-08-12T01:26:59.853Z,97566.91
2022-08-12T01:29:32.962Z,97571.19
2022-08-12T01:32:05.156Z,97563.19
2022-08-12T01:34:37.443Z,97567.28
2022-08-12T01:37:07.587Z,97562.78
2022-08-12T01:40:36.919Z,97569.13
2022-08-12T01:42:39.939Z,97572.00
2022-08-12T01:45:07.163Z,97568.91
2022-08-12T01:47:54.581Z,97561.78
2022-08-12T01:50:47.557Z,97565.25
2022-08-12T01:53:16.018Z,97562.00
2022-08-12T01:55:46.341Z,97560.34
2022-08-12T01:58:51.374Z,97556.00
2022-08-12T02:01:19.554Z,97555.78
2022-08-12T02:04:22.541Z,97560.44
2022-08-12T02:07:16.404Z,97560.66
2022-08-12T02:10:10.639Z,97559.16
2022-08-12T02:13:06.091Z,97553.19
2022-08-12T02:15:48.096Z,97555.69
2022-08-12T02:18:42.013Z,97559.56
2022-08-12T02:21:20.692Z,97556.09
2022-08-12T02:23:48.057Z,97555.72
2022-08-12T02:26:15.970Z,97555.13
2022-08-12T02:28:42.636Z,97566.38
2022-08-12T02:31:09.648Z,97562.06
2022-08-12T02:33:37.777Z,97548.56
2022-08-12T02:36:05.200Z,97549.63
2022-08-12T02:38:31.866Z,97552.88
2022-08-12T02:41:02.091Z,97566.78
2022-08-12T02:43:44.714Z,97561.19
2022-08-12T02:46:14.808Z,97562.16
2022-08-12T02:48:41.631Z,97566.06
2022-08-12T02:51:10.938Z,97565.03
2022-08-12T02:53:38.142Z,97567.94
2022-08-12T02:56:05.661Z,97563.03
2022-08-12T02:58:33.698Z,97560.53
2022-08-12T03:01:04.451Z,97558.47
2022-08-12T03:03:32.910Z,97560.09
2022-08-12T03:06:04.557Z,97565.41
2022-08-12T03:08:36.268Z,97559.28
2022-08-12T03:11:27.614Z,97549.66
2022-08-12T03:13:58.015Z,97562.56
2022-08-12T03:16:26.847Z,97563.59
2022-08-12T03:18:54.549Z,97561.34
2022-08-12T03:22:03.841Z,97553.50
2022-08-12T03:24:09.525Z,97565.34
2022-08-12T03:26:37.031Z,97567.38
2022-08-12T03:29:06.598Z,97566.13
2022-08-12T03:31:33.805Z,97558.50
2022-08-12T03:34:08.279Z,97562.19
2022-08-12T03:36:36.667Z,97562.97
2022-08-12T03:39:16.226Z,97569.28
2022-08-12T03:41:55.194Z,97559.22
2022-08-12T03:45:08.442Z,97571.75
2022-08-12T03:48:04.420Z,97565.16
2022-08-12T03:50:49.806Z,97566.75
2022-08-12T03:53:43.503Z,97566.94
2022-08-12T03:56:28.635Z,97557.66
2022-08-12T03:59:14.327Z,97567.19
2022-08-12T04:01:41.367Z,97564.97
2022-08-12T04:04:11.009Z,97568.25
2022-08-12T04:06:42.251Z,97571.28
2022-08-12T04:09:15.545Z,97570.28
2022-08-12T04:12:02.424Z,97571.50
2022-08-12T04:14:28.955Z,97570.44
2022-08-12T04:16:57.099Z,97571.06
2022-08-12T04:19:25.093Z,97571.81
2022-08-12T04:22:02.457Z,97571.81
2022-08-12T04:24:31.597Z,97573.44
2022-08-12T04:26:58.155Z,97581.66
2022-08-12T04:30:21.253Z,97577.59
2022-08-12T04:32:13.884Z,97574.72
2022-08-12T04:34:42.241Z,97571.50
2022-08-12T04:37:08.856Z,97573.13
2022-08-12T04:39:35.731Z,97578.44
2022-08-12T04:42:02.315Z,97568.81
2022-08-12T04:44:28.828Z,97570.66
2022-08-12T04:46:55.981Z,97587.03
2022-08-12T04:49:24.168Z,97583.00
2022-08-12T04:51:55.214Z,97585.28
2022-08-12T04:54:26.608Z,97580.59
2022-08-12T04:57:04.165Z,97584.50
2022-08-12T04:59:47.864Z,97594.06
2022-08-12T05:02:22.802Z,97583.28
2022-08-12T05:04:51.718Z,97572.97
2022-08-12T05:07:19.377Z,97572.97
2022-08-12T05:09:59.058Z,97573.00
2022-08-12T05:12:34.607Z,97572.78
2022-08-12T05:15:01.723Z,97578.72
2022-08-12T05:17:28.570Z,97579.97
2022-08-12T05:19:57.166Z,97575.06
2022-08-12T05:22:27.594Z,97579.84
2022-08-12T05:24:54.436Z,97580.09
2022-08-12T05:27:22.925Z,97575.25
2022-08-12T05:30:07.638Z,97565.03
2022-08-12T05:32:36.604Z,97575.31
2022-08-12T05:35:06.635Z,97574.53
2022-08-12T05:37:34.868Z,97573.31
2022-08-12T05:40:06.881Z,97584.00
2022-08-12T05:42:36.824Z,97584.41
2022-08-12T05:45:03.768Z,97582.63
2022-08-12T05:47:40.698Z,97583.06
2022-08-12T05:50:16.942Z,97575.91
2022-08-12T05:52:44.021Z,97578.34
2022-08-12T05:55:11.711Z,97586.28
2022-08-12T05:57:39.047Z,97584.81
2022-08-12T06:00:06.708Z,97579.59
2022-08-12T06:02:35.049Z,97587.25
2022-08-12T06:05:02.579Z,97587.50
2022-08-12T06:07:59.255Z,97588.94
2022-08-12T06:10:17.711Z,97589.63
2022-08-12T06:13:00.518Z,97596.69
2022-08-12T06:15:27.161Z,97593.91
2022-08-12T06:17:53.824Z,97588.22
2022-08-12T06:20:25.728Z,97604.53
2022-08-12T06:22:56.904Z,97597.53
2022-08-12T06:25:26.924Z,97586.75
2022-08-12T06:28:07.367Z,97587.66
2022-08-12T06:30:38.982Z,97593.56
2022-08-12T06:33:24.917Z,97584.97
2022-08-12T06:35:57.765Z,97591.72
2022-08-12T06:38:27.244Z,97583.41
2022-08-12T06:41:14.328Z,97588.03
2022-08-12T06:44:07.015Z,97585.53
2022-08-12T06:46:29.797Z,97587.69
2022-08-12T06:48:59.219Z,97588.81
2022-08-12T06:51:28.605Z,97589.22
2022-08-12T06:53:55.963Z,97581.19
2022-08-12T06:56:39.896Z,97576.16
2022-08-12T06:59:11.638Z,97587.97
2022-08-12T07:01:38.746Z,97576.34
2022-08-12T07:04:26.496Z,97579.31
2022-08-12T07:06:51.844Z,97588.13
2022-08-12T07:10:04.804Z,97581.06
2022-08-12T07:12:04.981Z,97575.03
2022-08-12T07:14:31.678Z,97582.50
2022-08-12T07:17:02.227Z,97582.41
2022-08-12T07:19:40.448Z,97577.34
2022-08-12T07:22:13.426Z,97570.81
2022-08-12T07:24:39.979Z,97579.09
2022-08-12T07:27:06.525Z,97582.72
2022-08-12T07:30:03.405Z,97589.81
2022-08-12T07:32:24.425Z,97584.97
2022-08-12T07:34:52.399Z,97596.19
2022-08-12T07:37:18.909Z,97593.91
2022-08-12T07:39:50.866Z,97592.91
2022-08-12T07:42:26.647Z,97590.53
2022-08-12T07:44:53.418Z,97588.63
2022-08-12T07:47:20.015Z,97599.81
2022-08-12T07:50:05.327Z,97587.19
2022-08-12T07:52:44.019Z,97588.50
2022-08-12T07:55:11.752Z,97580.41
2022-08-12T07:57:55.936Z,97581.50
2022-08-12T08:00:22.742Z,97584.03
2022-08-12T08:02:49.369Z,97586.75
2022-08-12T08:05:16.243Z,97585.81
2022-08-12T08:07:42.790Z,97584.06
2022-08-12T08:10:11.557Z,97584.94
2022-08-12T08:12:58.727Z,97592.19
2022-08-12T08:15:51.284Z,97584.66
2022-08-12T08:18:26.776Z,97581.66
2022-08-12T08:20:54.899Z,97590.06
2022-08-12T08:23:21.405Z,97590.06
2022-08-12T08:25:48.336Z,97580.63
2022-08-12T08:28:18.797Z,97594.09
2022-08-12T08:30:47.836Z,97591.88
2022-08-12T08:33:22.835Z,97586.22
2022-08-12T08:35:54.616Z,97577.28
2022-08-12T08:38:32.839Z,97577.56
2022-08-12T08:42:15.456Z,97584.75
2022-08-12T08:44:11.372Z,97586.69
2022-08-12T08:46:41.172Z,97567.75
2022-08-12T08:49:08.489Z,97583.03
2022-08-12T08:51:35.361Z,97571.13
2022-08-12T08:54:01.933Z,97580.84
2022-08-12T08:56:31.388Z,97581.41
2022-08-12T08:58:58.024Z,97578.97
2022-08-12T09:01:25.277Z,97578.94
2022-08-12T09:05:09.771Z,97576.47
2022-08-12T09:06:53.673Z,97571.88
2022-08-12T09:09:23.889Z,97574.38
2022-08-12T09:12:11.672Z,97563.34
2022-08-12T09:14:46.952Z,97570.25
2022-08-12T09:17:21.020Z,97567.03
2022-08-12T09:19:57.295Z,97562.31
2022-08-12T09:22:28.427Z,97566.84
2022-08-12T09:24:55.165Z,97564.94
2022-08-12T09:27:25.771Z,97557.28
2022-08-12T09:30:16.086Z,97567.78
2022-08-12T09:33:04.881Z,97552.34
2022-08-12T09:35:42.876Z,97552.69
2022-08-12T09:38:28.522Z,97550.84
2022-08-12T09:42:07.252Z,97550.31
2022-08-12T09:44:05.995Z,97542.03
2022-08-12T09:46:34.686Z,97541.28
2022-08-12T09:49:04.219Z,97540.69
2022-08-12T09:51:43.907Z,97537.69
2022-08-12T09:54:32.826Z,97531.72
2022-08-12T09:58:46.213Z,97527.50
2022-08-12T10:00:14.575Z,97536.09
2022-08-12T10:02:59.114Z,97518.75
2022-08-12T10:06:26.238Z,97521.56
2022-08-12T10:08:15.532Z,97524.31
2022-08-12T10:11:06.816Z,97524.53
2022-08-12T10:13:42.454Z,97524.22
2022-08-12T10:16:18.610Z,97520.72
2022-08-12T10:18:58.048Z,97511.03
2022-08-12T10:21:36.016Z,97513.94
2022-08-12T10:24:11.738Z,97509.44
2022-08-12T10:26:58.947Z,97508.56
2022-08-12T10:30:03.876Z,97505.50
2022-08-12T10:32:45.464Z,97505.78
2022-08-12T10:35:15.825Z,97498.09
2022-08-12T10:38:39.021Z,97499.22
2022-08-12T10:40:33.405Z,97485.44
2022-08-12T10:43:19.970Z,97482.78
2022-08-12T10:45:49.514Z,97471.63
2022-08-12T10:48:23.092Z,97470.97
2022-08-12T10:51:51.543Z,97468.31
2022-08-12T10:54:00.902Z,97472.38
2022-08-12T10:56:34.850Z,97467.09
2022-08-12T10:59:10.487Z,97462.38
2022-08-12T11:04:31.665Z,97472.66
2022-08-12T11:04:41.405Z,97470.28
2022-08-12T11:08:34.233Z,97467.44
2022-08-12T11:10:02.574Z,97451.97
2022-08-12T11:12:55.549Z,97450.59
2022-08-12T11:15:24.175Z,97457.97
2022-08-12T11:18:03.059Z,97453.53
2022-08-12T11:20:31.142Z,97446.03
2022-08-12T11:22:59.722Z,97444.81
2022-08-12T11:25:55.662Z,97437.94
2022-08-12T11:28:14.923Z,97430.41
2022-08-12T11:30:43.196Z,97426.22
2022-08-12T11:33:12.106Z,97439.03
2022-08-12T11:35:53.117Z,97429.28
2022-08-12T11:38:22.877Z,97427.63
2022-08-12T11:40:50.161Z,97432.66
2022-08-12T11:43:19.720Z,97430.72
2022-08-12T11:45:47.034Z,97421.34
2022-08-12T11:48:15.352Z,97422.00
2022-08-12T11:50:44.868Z,97421.81
2022-08-12T11:53:58.104Z,97426.81
2022-08-12T11:55:57.906Z,97406.38
2022-08-12T11:59:28.586Z,97406.63
2022-08-12T12:03:57.547Z,97398.56
2022-08-12T12:06:24.979Z,97412.47
2022-08-12T12:08:53.799Z,97411.72
2022-08-12T12:11:21.824Z,97394.63
2022-08-12T12:14:08.743Z,97393.13
2022-08-12T12:16:39.740Z,97410.06
2022-08-12T12:19:10.244Z,97400.31
2022-08-12T12:21:46.913Z,97394.81
2022-08-12T12:24:21.108Z,97398.41
2022-08-12T12:27:00.160Z,97407.94
2022-08-12T12:30:19.682Z,97395.63
2022-08-12T12:32:15.112Z,97395.13
2022-08-12T12:35:14.312Z,97390.81
2022-08-12T12:38:03.425Z,97385.16
2022-08-12T12:40:15.348Z,97385.81
2022-08-12T12:42:55.282Z,97377.28
2022-08-12T12:45:26.049Z,97383.28
2022-08-12T12:47:56.903Z,97374.22
2022-08-12T12:50:35.107Z,97371.28
2022-08-12T12:53:03.617Z,97360.63
2022-08-12T12:55:35.578Z,97367.13
2022-08-12T12:58:04.758Z,97367.16
2022-08-12T13:00:32.804Z,97356.09
2022-08-12T13:03:00.100Z,97365.00
2022-08-12T13:05:42.656Z,97368.59
2022-08-12T13:08:28.485Z,97359.22
2022-08-12T13:11:04.268Z,97348.34
2022-08-12T13:14:09.922Z,97355.34
2022-08-12T13:16:22.954Z,97352.56
2022-08-12T13:18:51.171Z,97341.16
2022-08-12T13:21:33.378Z,97344.06
2022-08-12T13:24:10.124Z,97337.25
2022-08-12T13:26:40.228Z,97349.94
2022-08-12T13:29:11.191Z,97344.72
2022-08-12T13:32:17.280Z,97341.81
2022-08-12T13:34:28.568Z,97336.44
2022-08-12T13:37:04.406Z,97335.66
2022-08-12T13:39:35.826Z,97325.28
2022-08-12T13:42:02.407Z,97324.06
2022-08-12T13:44:28.936Z,97313.88
2022-08-12T13:46:58.475Z,97332.84
2022-08-12T13:49:54.486Z,97317.09
2022-08-12T13:52:15.352Z,97324.59
2022-08-12T13:54:41.899Z,97325.44
2022-08-12T13:57:11.053Z,97325.28
2022-08-12T13:59:48.228Z,97320.91
2022-08-12T14:02:15.897Z,97327.88
2022-08-12T14:04:45.485Z,97318.13
2022-08-12T14:07:23.253Z,97309.66
2022-08-12T14:10:11.356Z,97308.84
2022-08-12T14:12:40.163Z,97308.34
2022-08-12T14:15:21.522Z,97316.56
2022-08-12T14:18:14.925Z,97313.97
2022-08-12T14:20:43.778Z,97307.47
2022-08-12T14:24:05.659Z,97302.84
2022-08-12T14:26:05.250Z,97306.16
2022-08-12T14:28:34.841Z,97318.13
2022-08-12T14:31:18.231Z,97305.16
2022-08-12T14:33:50.140Z,97300.34
2022-08-12T14:36:25.403Z,97302.63
2022-08-12T14:38:54.271Z,97297.50
2022-08-12T14:41:36.610Z,97305.28
2022-08-12T14:44:06.336Z,97303.34
2022-08-12T14:46:55.751Z,97300.81
2022-08-12T14:50:34.391Z,97297.63
2022-08-12T14:53:42.387Z,97311.84
2022-08-12T14:57:56.650Z,97302.59
2022-08-12T15:00:50.738Z,97295.72
2022-08-12T15:03:20.513Z,97305.25
2022-08-12T15:06:05.380Z,97300.25
2022-08-12T15:08:38.905Z,97298.50
2022-08-12T15:11:14.291Z,97295.91
2022-08-12T15:13:45.994Z,97300.63
2022-08-12T15:16:13.536Z,97296.81
2022-08-12T15:18:55.264Z,97301.41
2022-08-12T15:21:26.114Z,97295.88
2022-08-12T15:24:12.666Z,97283.72
2022-08-12T15:26:40.955Z,97287.75
2022-08-12T15:29:07.671Z,97292.56
2022-08-12T15:32:02.022Z,97288.53
2022-08-12T15:34:23.915Z,97282.75
2022-08-12T15:36:55.083Z,97286.94
2022-08-12T15:39:22.228Z,97284.34
2022-08-12T15:41:50.537Z,97276.56
2022-08-12T15:44:38.535Z,97282.41
2022-08-12T15:47:04.592Z,97288.78
2022-08-12T15:49:54.199Z,97289.41
2022-08-12T15:52:27.378Z,97291.00
2022-08-12T15:54:54.623Z,97289.38
2022-08-12T15:57:26.406Z,97285.19
2022-08-12T16:00:07.020Z,97286.22
2022-08-12T16:02:47.409Z,97289.38
2022-08-12T16:06:11.458Z,97283.28
2022-08-12T16:08:17.107Z,97286.25
2022-08-12T16:10:45.315Z,97280.84
2022-08-12T16:13:14.037Z,97271.09
2022-08-12T16:15:51.093Z,97274.91
2022-08-12T16:18:31.294Z,97274.41
2022-08-12T16:20:58.160Z,97279.97
2022-08-12T16:23:36.514Z,97265.59
2022-08-12T16:26:14.426Z,97270.72
2022-08-12T16:28:41.923Z,97272.94
2022-08-12T16:31:14.468Z,97268.19
2022-08-12T16:34:00.672Z,97272.41
2022-08-12T16:36:30.128Z,97280.84
2022-08-12T16:38:57.172Z,97266.28
2022-08-12T16:41:24.069Z,97284.22
2022-08-12T16:43:52.983Z,97269.13
2022-08-12T16:46:31.997Z,97266.47
2022-08-12T16:48:59.741Z,97268.16
2022-08-12T16:51:40.433Z,97261.69
2022-08-12T16:54:14.295Z,97266.94
2022-08-12T16:56:55.191Z,97260.31
2022-08-12T16:59:31.048Z,97260.59
2022-08-12T17:02:33.937Z,97252.31
2022-08-12T17:05:03.022Z,97257.28
2022-08-12T17:07:37.143Z,97258.44
2022-08-12T17:10:12.049Z,97261.78
2022-08-12T17:12:38.839Z,97264.81
2022-08-12T17:15:50.346Z,97259.16
2022-08-12T17:18:38.768Z,97254.38
2022-08-12T17:20:46.592Z,97256.22
2022-08-12T17:23:19.351Z,97256.00
2022-08-12T17:25:52.139Z,97256.06
2022-08-12T17:28:21.278Z,97257.28
2022-08-12T17:30:59.465Z,97255.13
2022-08-12T17:33:27.275Z,97256.03
2022-08-12T17:35:58.500Z,97255.84
2022-08-12T17:38:25.166Z,97260.53
2022-08-12T17:40:51.871Z,97266.25
2022-08-12T17:43:56.566Z,97261.91
2022-08-12T17:46:12.582Z,97257.59
2022-08-12T17:48:55.401Z,97266.28
2022-08-12T17:51:24.528Z,97273.88
2022-08-12T17:54:10.386Z,97269.88
2022-08-12T17:56:39.220Z,97275.06
2022-08-12T17:59:09.727Z,97279.13
2022-08-12T18:01:43.335Z,97278.38
2022-08-12T18:04:23.421Z,97274.66
2022-08-12T18:06:56.992Z,97278.78
2022-08-12T18:09:31.821Z,97282.31
2022-08-12T18:12:24.659Z,97294.78
2022-08-12T18:15:00.759Z,97292.13
2022-08-12T18:17:28.782Z,97296.47
2022-08-12T18:20:04.952Z,97297.88
2022-08-12T18:22:35.637Z,97297.09
2022-08-12T18:25:06.315Z,97302.53
2022-08-12T18:27:44.284Z,97297.66
2022-08-12T18:30:20.932Z,97304.69
2022-08-12T18:33:03.808Z,97309.56
2022-08-12T18:35:47.586Z,97313.59
2022-08-12T18:38:21.123Z,97314.41
2022-08-12T18:41:10.126Z,97312.00
2022-08-12T18:43:59.488Z,97317.91
2022-08-12T18:46:35.881Z,97317.06
2022-08-12T18:49:17.784Z,97320.25
2022-08-12T18:51:55.514Z,97324.53
2022-08-12T18:54:35.301Z,97327.19
2022-08-12T18:57:04.980Z,97330.91
2022-08-12T19:00:01.334Z,97318.72
2022-08-12T19:02:23.251Z,97321.56
2022-08-12T19:04:52.862Z,97330.63
2022-08-12T19:07:22.198Z,97343.41
2022-08-12T19:09:57.950Z,97341.13
2022-08-12T19:12:57.264Z,97346.84
2022-08-12T19:15:26.228Z,97343.66
2022-08-12T19:18:00.760Z,97339.47
2022-08-12T19:20:30.657Z,97342.78
2022-08-12T19:22:59.883Z,97346.94
2022-08-12T19:26:01.207Z,97357.84
2022-08-12T19:28:29.519Z,97351.47
2022-08-12T19:31:15.567Z,97347.75
2022-08-12T19:34:00.924Z,97352.22
2022-08-12T19:36:31.739Z,97351.19
2022-08-12T19:38:59.756Z,97354.72
2022-08-12T19:41:34.436Z,97356.22
2022-08-12T19:44:16.719Z,97356.13
2022-08-12T19:46:51.952Z,97356.28
2022-08-12T19:49:20.426Z,97357.28
2022-08-12T19:51:51.829Z,97349.25
2022-08-12T19:54:22.725Z,97360.69
2022-08-12T19:56:51.572Z,97360.75
2022-08-12T19:59:43.551Z,97357.19
2022-08-12T20:02:41.421Z,97365.59
2022-08-12T20:06:05.802Z,97365.53
2022-08-12T20:07:59.406Z,97362.69
2022-08-12T20:10:35.123Z,97370.03
2022-08-12T20:13:18.556Z,97360.75
2022-08-12T20:15:51.126Z,97356.00
2022-08-12T20:18:44.304Z,97361.38
2022-08-12T20:21:16.156Z,97362.91
2022-08-12T20:23:59.611Z,97365.59
2022-08-12T20:26:27.872Z,97374.91
2022-08-12T20:28:55.452Z,97365.97
2022-08-12T20:31:22.008Z,97365.53
2022-08-12T20:33:56.386Z,97369.94
2022-08-12T20:36:40.843Z,97369.75
2022-08-12T20:39:35.832Z,97364.84
2022-08-12T20:41:58.786Z,97370.44
2022-08-12T20:44:28.710Z,97367.16
2022-08-12T20:46:56.046Z,97374.94
2022-08-12T20:49:25.129Z,97375.31
2022-08-12T20:51:56.119Z,97374.00
2022-08-12T20:54:22.879Z,97370.41
2022-08-12T20:57:01.974Z,97374.84
2022-08-12T20:59:48.236Z,97363.41
2022-08-12T21:02:18.786Z,97377.72
2022-08-12T21:05:10.708Z,97380.97
2022-08-12T21:07:51.539Z,97379.69
2022-08-12T21:10:20.855Z,97377.31
2022-08-12T21:12:48.053Z,97379.88
2022-08-12T21:15:24.308Z,97386.94
2022-08-12T21:18:11.221Z,97383.28
2022-08-12T21:20:50.607Z,97387.09
2022-08-12T21:23:18.871Z,97380.00
2022-08-12T21:25:46.079Z,97386.59
2022-08-12T21:28:18.934Z,97392.75
2022-08-12T21:31:11.137Z,97391.94
2022-08-12T21:33:58.706Z,97395.88
2022-08-12T21:36:22.525Z,97404.44
2022-08-12T21:39:17.641Z,97404.88
2022-08-12T21:41:52.306Z,97397.75
2022-08-12T21:44:24.749Z,97391.56
2022-08-12T21:47:21.500Z,97404.91
2022-08-12T21:49:53.836Z,97406.53
2022-08-12T21:52:28.318Z,97403.69
2022-08-12T21:55:02.149Z,97385.56
2022-08-12T21:57:36.447Z,97407.03
2022-08-12T22:00:19.017Z,97404.59
2022-08-12T22:03:04.195Z,97404.97
2022-08-12T22:05:49.368Z,97402.66
2022-08-12T22:08:17.058Z,97404.59
2022-08-12T22:10:52.384Z,97401.22
2022-08-12T22:14:02.574Z,97397.34
2022-08-12T22:16:06.719Z,97398.69
2022-08-12T22:18:33.243Z,97406.53
2022-08-12T22:20:59.783Z,97412.38
2022-08-12T22:23:51.278Z,97411.88
2022-08-12T22:26:15.987Z,97408.25
2022-08-12T22:29:17.241Z,97398.53
2022-08-12T22:31:45.875Z,97405.19
2022-08-12T22:34:18.341Z,97403.25
2022-08-12T22:36:45.733Z,97403.75
2022-08-12T22:39:15.699Z,97404.19
2022-08-12T22:42:01.779Z,97397.97
2022-08-12T22:44:54.086Z,97401.16
2022-08-12T22:47:53.736Z,97405.47
2022-08-12T22:50:26.883Z,97409.28
2022-08-12T22:53:14.922Z,97398.25
2022-08-12T22:56:06.078Z,97397.97
2022-08-12T22:58:33.352Z,97402.50
2022-08-12T23:01:02.175Z,97405.34
2022-08-12T23:03:47.652Z,97406.88
2022-08-12T23:06:19.825Z,97400.78
2022-08-12T23:08:47.958Z,97400.38
2022-08-12T23:11:14.982Z,97399.56
2022-08-12T23:13:55.433Z,97395.44
2022-08-12T23:16:31.488Z,97391.00
2022-08-12T23:19:18.184Z,97398.47
2022-08-12T23:22:05.764Z,97385.84
2022-08-12T23:24:53.919Z,97400.97
2022-08-12T23:27:50.448Z,97390.94
2022-08-12T23:30:25.184Z,97394.91
2022-08-12T23:33:00.722Z,97386.75
2022-08-12T23:35:28.431Z,97385.75
2022-08-12T23:38:30.380Z,97383.56
2022-08-12T23:40:58.179Z,97381.75
2022-08-12T23:43:25.549Z,97389.31
2022-08-12T23:46:01.018Z,97385.47
2022-08-12T23:48:31.306Z,97383.78
2022-08-12T23:51:01.170Z,97378.69
2022-08-12T23:53:32.446Z,97375.84
2022-08-12T23:55:59.580Z,97370.09
2022-08-12T23:58:28.253Z,97374.22
